createdAt,value
2023-01-12T00:00:36.658Z,99130.31
2023-01-12T00:03:07.390Z,99132.55
2023-01-12T00:05:38.219Z,99135.25
2023-01-12T00:08:09.060Z,99134.38
2023-01-12T00:10:39.762Z,99135.50
2023-01-12T00:13:10.535Z,99138.05
2023-01-12T00:15:55.136Z,99142.72
2023-01-12T00:18:25.894Z,99141.70
2023-01-12T00:20:56.851Z,99151.04
2023-01-12T00:23:29.377Z,99156.77
2023-01-12T00:26:00.195Z,99155.93
2023-01-12T00:28:31.137Z,99156.80
2023-01-12T00:31:08.148Z,99161.77
2023-01-12T00:33:39.535Z,99170.01
2023-01-12T00:36:14.491Z,99174.48
2023-01-12T00:38:45.188Z,99183.65
2023-01-12T00:41:36.961Z,99186.02
2023-01-12T00:44:25.994Z,99191.02
2023-01-12T00:46:56.797Z,99185.66
2023-01-12T00:49:27.591Z,99187.69
2023-01-12T00:51:58.367Z,99182.06
2023-01-12T00:54:29.115Z,99190.22
2023-01-12T00:56:59.785Z,99190.54
2023-01-12T00:59:30.537Z,99195.61
2023-01-12T01:02:01.318Z,99195.66
2023-01-12T01:04:32.443Z,99202.58
2023-01-12T01:07:04.789Z,99204.39
2023-01-12T01:09:35.791Z,99204.13
2023-01-12T01:12:06.892Z,99208.73
2023-01-12T01:14:37.843Z,99210.28
2023-01-12T01:17:08.844Z,99220.67
2023-01-12T01:19:39.549Z,99222.30
2023-01-12T01:22:10.191Z,99227.77
2023-01-12T01:24:41.003Z,99229.02
2023-01-12T01:27:12.361Z,99227.84
2023-01-12T01:29:43.280Z,99228.59
2023-01-12T01:32:14.124Z,99227.05
2023-01-12T01:34:46.460Z,99230.61
2023-01-12T01:37:18.567Z,99230.88
2023-01-12T01:39:49.214Z,99226.65
2023-01-12T01:42:28.897Z,99229.30
2023-01-12T01:45:02.654Z,99232.45
2023-01-12T01:47:35.635Z,99233.73
2023-01-12T01:50:12.473Z,99237.58
2023-01-12T01:52:46.332Z,99237.29
2023-01-12T01:55:22.465Z,99234.80
2023-01-12T01:57:57.913Z,99230.88
2023-01-12T02:00:29.488Z,99231.04
2023-01-12T02:03:02.910Z,99233.61
2023-01-12T02:05:34.012Z,99236.71
2023-01-12T02:08:11.610Z,99233.71
2023-01-12T02:10:42.668Z,99232.25
2023-01-12T02:13:31.320Z,99232.97
2023-01-12T02:16:23.359Z,99233.73
2023-01-12T02:19:08.398Z,99235.11
2023-01-12T02:22:05.129Z,99245.30
2023-01-12T02:25:04.222Z,99243.89
2023-01-12T02:27:55.672Z,99244.41
2023-01-12T02:31:24.316Z,99245.63
2023-01-12T02:34:05.819Z,99241.66
2023-01-12T02:36:46.129Z,99238.55
2023-01-12T02:39:25.571Z,99233.79
2023-01-12T02:42:23.735Z,99231.05
2023-01-12T02:45:01.755Z,99233.04
2023-01-12T02:47:40.198Z,99235.25
2023-01-12T02:50:19.488Z,99237.01
2023-01-12T02:52:57.254Z,99238.74
2023-01-12T02:55:30.203Z,99242.39
2023-01-12T02:58:02.236Z,99238.86
2023-01-12T03:00:38.164Z,99247.52
2023-01-12T03:03:11.775Z,99246.14
2023-01-12T03:05:44.407Z,99242.14
2023-01-12T03:08:18.576Z,99243.52
2023-01-12T03:11:00.303Z,99246.79
2023-01-12T03:13:34.488Z,99243.64
2023-01-12T03:16:08.749Z,99248.83
2023-01-12T03:18:44.231Z,99244.65
2023-01-12T03:21:20.025Z,99249.77
2023-01-12T03:23:56.872Z,99249.67
2023-01-12T03:26:29.660Z,99247.91
2023-01-12T03:29:06.328Z,99245.43
2023-01-12T03:31:37.661Z,99246.20
2023-01-12T03:34:09.267Z,99248.25
2023-01-12T03:36:49.948Z,99246.25
2023-01-12T03:39:27.378Z,99246.59
2023-01-12T03:42:02.981Z,99251.64
2023-01-12T03:44:41.374Z,99256.93
2023-01-12T03:47:19.667Z,99263.21
2023-01-12T03:49:55.535Z,99264.54
2023-01-12T03:52:29.772Z,99267.16
2023-01-12T03:55:01.737Z,99263.68
2023-01-12T03:57:33.639Z,99262.93
2023-01-12T04:00:06.763Z,99248.51
2023-01-12T04:02:37.530Z,99242.45
2023-01-12T04:05:11.210Z,99242.77
2023-01-12T04:07:41.994Z,99239.86
2023-01-12T04:10:13.924Z,99246.86
2023-01-12T04:12:44.659Z,99250.57
2023-01-12T04:15:16.035Z,99254.30
2023-01-12T04:17:47.060Z,99259.70
2023-01-12T04:20:18.974Z,99262.81
2023-01-12T04:22:49.819Z,99269.23
2023-01-12T04:25:23.391Z,99272.67
2023-01-12T04:27:59.117Z,99274.44
2023-01-12T04:30:30.842Z,99275.57
2023-01-12T04:33:06.826Z,99274.70
2023-01-12T04:35:37.570Z,99272.32
2023-01-12T04:38:10.611Z,99269.90
2023-01-12T04:40:41.401Z,99275.09
2023-01-12T04:43:12.751Z,99281.23
2023-01-12T04:45:43.908Z,99284.53
2023-01-12T04:48:16.567Z,99281.77
2023-01-12T04:50:47.523Z,99281.50
2023-01-12T04:53:18.223Z,99285.08
2023-01-12T04:55:49.668Z,99284.71
2023-01-12T04:58:20.523Z,99287.48
2023-01-12T05:00:51.363Z,99292.55
2023-01-12T05:03:22.142Z,99295.18
2023-01-12T05:05:52.803Z,99288.73
2023-01-12T05:08:41.624Z,99291.39
2023-01-12T05:11:12.255Z,99287.27
2023-01-12T05:13:43.218Z,99280.85
2023-01-12T05:16:16.159Z,99277.73
2023-01-12T05:18:47.722Z,99273.46
2023-01-12T05:21:20.507Z,99276.60
2023-01-12T05:23:54.079Z,99277.39
2023-01-12T05:26:24.663Z,99283.89
2023-01-12T05:28:55.416Z,99287.23
2023-01-12T05:31:26.350Z,99289.89
2023-01-12T05:33:56.949Z,99290.52
2023-01-12T05:36:27.614Z,99288.02
2023-01-12T05:38:58.243Z,99285.40
2023-01-12T05:41:28.974Z,99281.86
2023-01-12T05:43:59.714Z,99278.63
2023-01-12T05:46:33.344Z,99276.08
2023-01-12T05:49:04.090Z,99278.29
2023-01-12T05:51:34.824Z,99280.30
2023-01-12T05:54:08.457Z,99284.08
2023-01-12T05:56:39.149Z,99284.89
2023-01-12T05:59:11.741Z,99286.39
2023-01-12T06:01:42.383Z,99286.23
2023-01-12T06:04:13.326Z,99284.56
2023-01-12T06:06:46.540Z,99283.27
2023-01-12T06:09:19.679Z,99286.03
2023-01-12T06:12:08.371Z,99293.41
2023-01-12T06:14:39.086Z,99286.88
2023-01-12T06:17:09.737Z,99279.95
2023-01-12T06:19:40.401Z,99285.82
2023-01-12T06:22:11.350Z,99286.03
2023-01-12T06:24:42.193Z,99283.27
2023-01-12T06:27:12.977Z,99285.41
2023-01-12T06:29:43.664Z,99281.17
2023-01-12T06:32:14.286Z,99282.02
2023-01-12T06:34:44.979Z,99289.73
2023-01-12T06:37:16.648Z,99292.11
2023-01-12T06:39:47.697Z,99293.06
2023-01-12T06:42:30.518Z,99292.70
2023-01-12T06:45:03.928Z,99287.05
2023-01-12T06:47:34.613Z,99280.50
2023-01-12T06:50:05.656Z,99282.84
2023-01-12T06:52:36.382Z,99284.19
2023-01-12T06:55:08.392Z,99286.00
2023-01-12T06:57:39.119Z,99284.64
2023-01-12T07:00:13.225Z,99282.90
2023-01-12T07:02:43.912Z,99289.48
2023-01-12T07:05:14.714Z,99288.96
2023-01-12T07:07:45.551Z,99295.05
2023-01-12T07:10:17.528Z,99294.95
2023-01-12T07:12:48.352Z,99298.89
2023-01-12T07:15:19.401Z,99297.99
2023-01-12T07:17:55.972Z,99298.22
2023-01-12T07:20:28.675Z,99297.30
2023-01-12T07:22:59.464Z,99298.31
2023-01-12T07:25:30.539Z,99299.04
2023-01-12T07:28:01.717Z,99295.84
2023-01-12T07:30:32.419Z,99293.71
2023-01-12T07:33:10.595Z,99293.86
2023-01-12T07:35:41.502Z,99290.85
2023-01-12T07:38:12.636Z,99288.73
2023-01-12T07:40:44.276Z,99285.21
2023-01-12T07:43:17.409Z,99275.81
2023-01-12T07:45:48.179Z,99274.58
2023-01-12T07:48:18.857Z,99272.67
2023-01-12T07:50:49.581Z,99271.53
2023-01-12T07:53:20.437Z,99273.02
2023-01-12T07:55:51.147Z,99267.66
2023-01-12T07:58:21.905Z,99275.14
2023-01-12T08:00:52.641Z,99272.26
2023-01-12T08:03:23.322Z,99273.59
2023-01-12T08:05:54.682Z,99272.58
2023-01-12T08:08:25.464Z,99274.41
2023-01-12T08:10:56.375Z,99269.63
2023-01-12T08:13:27.145Z,99267.56
2023-01-12T08:16:03.161Z,99269.31
2023-01-12T08:18:39.648Z,99267.02
2023-01-12T08:21:13.888Z,99270.59
2023-01-12T08:23:46.876Z,99269.52
2023-01-12T08:26:23.864Z,99271.15
2023-01-12T08:28:58.203Z,99263.70
2023-01-12T08:31:29.538Z,99264.80
2023-01-12T08:34:00.618Z,99260.58
2023-01-12T08:36:32.934Z,99257.33
2023-01-12T08:39:04.907Z,99259.70
2023-01-12T08:41:37.626Z,99259.20
2023-01-12T08:44:11.063Z,99258.33
2023-01-12T08:46:48.594Z,99265.35
2023-01-12T08:49:22.960Z,99264.85
2023-01-12T08:51:55.287Z,99269.07
2023-01-12T08:54:26.009Z,99266.73
2023-01-12T08:56:56.769Z,99268.08
2023-01-12T08:59:27.557Z,99266.79
2023-01-12T09:01:58.390Z,99269.75
2023-01-12T09:04:29.297Z,99274.02
2023-01-12T09:07:00.394Z,99271.48
2023-01-12T09:09:31.267Z,99276.55
2023-01-12T09:12:02.524Z,99276.60
2023-01-12T09:14:38.420Z,99273.33
2023-01-12T09:17:09.720Z,99270.77
2023-01-12T09:19:40.365Z,99269.25
2023-01-12T09:22:12.330Z,99268.38
2023-01-12T09:24:43.041Z,99263.95
2023-01-12T09:27:14.707Z,99268.96
2023-01-12T09:29:45.566Z,99269.86
2023-01-12T09:32:18.496Z,99269.13
2023-01-12T09:34:51.047Z,99269.31
2023-01-12T09:37:21.985Z,99272.02
2023-01-12T09:39:52.812Z,99266.21
2023-01-12T09:42:41.839Z,99264.20
2023-01-12T09:45:39.224Z,99260.27
2023-01-12T09:48:11.958Z,99254.83
2023-01-12T09:50:48.388Z,99253.11
2023-01-12T09:53:24.946Z,99251.86
2023-01-12T09:56:04.114Z,99253.04
2023-01-12T09:58:52.041Z,99247.56
2023-01-12T10:01:29.492Z,99243.69
2023-01-12T10:04:03.088Z,99244.50
2023-01-12T10:06:35.902Z,99238.98
2023-01-12T10:09:11.425Z,99235.77
2023-01-12T10:11:47.531Z,99237.08
2023-01-12T10:14:31.006Z,99236.92
2023-01-12T10:17:16.242Z,99233.23
2023-01-12T10:19:56.309Z,99229.95
2023-01-12T10:22:40.469Z,99227.73
2023-01-12T10:25:24.411Z,99225.65
2023-01-12T10:27:57.073Z,99215.96
2023-01-12T10:30:32.993Z,99213.94
2023-01-12T10:33:13.684Z,99211.86
2023-01-12T10:35:57.421Z,99209.70
2023-01-12T10:38:32.510Z,99209.47
2023-01-12T10:41:17.126Z,99200.52
2023-01-12T10:44:06.593Z,99197.44
2023-01-12T10:46:37.702Z,99190.48
2023-01-12T10:49:22.872Z,99183.98
2023-01-12T10:51:56.505Z,99180.77
2023-01-12T10:54:29.301Z,99175.43
2023-01-12T10:57:04.676Z,99168.29
2023-01-12T10:59:39.018Z,99168.46
2023-01-12T11:02:19.623Z,99165.77
2023-01-12T11:04:52.517Z,99169.04
2023-01-12T11:07:25.978Z,99164.98
2023-01-12T11:09:57.592Z,99158.30
2023-01-12T11:12:34.415Z,99149.91
2023-01-12T11:15:16.846Z,99144.80
2023-01-12T11:18:02.406Z,99136.14
2023-01-12T11:20:39.714Z,99134.70
2023-01-12T11:23:16.988Z,99130.45
2023-01-12T11:25:51.111Z,99126.08
2023-01-12T11:28:29.375Z,99117.48
2023-01-12T11:31:05.932Z,99113.05
2023-01-12T11:33:41.509Z,99107.96
2023-01-12T11:36:20.727Z,99100.23
2023-01-12T11:38:54.761Z,99091.22
2023-01-12T11:41:31.941Z,99083.77
2023-01-12T11:44:10.117Z,99077.16
2023-01-12T11:46:46.774Z,99076.71
2023-01-12T11:49:24.521Z,99069.87
2023-01-12T11:51:58.292Z,99064.44
2023-01-12T11:54:28.183Z,99061.01
2023-01-12T11:57:24.568Z,99057.98
2023-01-12T12:00:10.161Z,99058.48
2023-01-12T12:02:46.463Z,99059.58
2023-01-12T12:05:29.520Z,99049.84
2023-01-12T12:08:17.548Z,99048.70
2023-01-12T12:10:58.098Z,99049.46
2023-01-12T12:13:36.996Z,99052.58
2023-01-12T12:16:22.342Z,99054.25
2023-01-12T12:19:10.909Z,99053.45
2023-01-12T12:21:49.672Z,99048.96
2023-01-12T12:24:47.023Z,99046.41
2023-01-12T12:27:27.634Z,99038.47
2023-01-12T12:30:21.793Z,99043.03
2023-01-12T12:33:01.177Z,99042.36
2023-01-12T12:35:47.104Z,99039.40
2023-01-12T12:38:21.899Z,99034.66
2023-01-12T12:41:25.094Z,99028.17
2023-01-12T12:44:22.746Z,99022.03
2023-01-12T12:47:01.570Z,99020.24
2023-01-12T12:49:35.310Z,99013.21
2023-01-12T12:52:05.121Z,99013.67
2023-01-12T12:54:36.591Z,99012.45
2023-01-12T12:57:08.307Z,99011.77
2023-01-12T12:59:55.392Z,99014.48
2023-01-12T13:02:54.228Z,99015.73
2023-01-12T13:05:43.386Z,99016.73
2023-01-12T13:08:27.426Z,99016.23
2023-01-12T13:10:59.999Z,99016.67
2023-01-12T13:13:33.596Z,99015.80
2023-01-12T13:16:45.028Z,99011.63
2023-01-12T13:19:33.411Z,99000.05
2023-01-12T13:22:27.875Z,99000.73
2023-01-12T13:25:00.262Z,99001.13
2023-01-12T13:27:55.658Z,98997.75
2023-01-12T13:30:41.914Z,98994.76
2023-01-12T13:33:29.611Z,98991.13
2023-01-12T13:36:10.990Z,98986.95
2023-01-12T13:38:57.553Z,98984.38
2023-01-12T13:41:48.203Z,98983.70
2023-01-12T13:44:25.538Z,98983.13
2023-01-12T13:47:08.588Z,98979.96
2023-01-12T13:49:48.080Z,98981.16
2023-01-12T13:52:30.248Z,98982.50
2023-01-12T13:55:01.617Z,98983.23
2023-01-12T13:57:33.602Z,98986.25
2023-01-12T14:00:09.306Z,98980.37
2023-01-12T14:02:41.981Z,98981.55
2023-01-12T14:05:38.296Z,98980.94
2023-01-12T14:08:51.248Z,98976.63
2023-01-12T14:11:47.750Z,98968.84
2023-01-12T14:15:07.610Z,98963.27
2023-01-12T14:17:53.242Z,98959.88
2023-01-12T14:20:27.338Z,98956.73
2023-01-12T14:23:21.709Z,98963.02
2023-01-12T14:26:14.472Z,98955.75
2023-01-12T14:28:46.923Z,98957.72
2023-01-12T14:31:26.693Z,98957.91
2023-01-12T14:34:00.006Z,98954.88
2023-01-12T14:36:35.847Z,98954.31
2023-01-12T14:39:16.966Z,98952.62
2023-01-12T14:42:11.693Z,98958.27
2023-01-12T14:45:09.765Z,98958.30
2023-01-12T14:47:41.114Z,98959.00
2023-01-12T14:50:25.779Z,98958.11
2023-01-12T14:52:56.602Z,98964.20
2023-01-12T14:55:41.316Z,98961.48
2023-01-12T14:58:22.668Z,98968.25
2023-01-12T15:00:53.830Z,98966.18
2023-01-12T15:03:39.138Z,98969.54
2023-01-12T15:06:17.877Z,98967.42
2023-01-12T15:09:02.228Z,98964.55
2023-01-12T15:11:36.131Z,98962.48
2023-01-12T15:14:08.103Z,98962.98
2023-01-12T15:16:57.159Z,98961.52
2023-01-12T15:19:45.600Z,98965.92
2023-01-12T15:22:34.345Z,98964.17
2023-01-12T15:25:29.956Z,98960.61
2023-01-12T15:28:00.761Z,98960.14
2023-01-12T15:30:32.121Z,98963.15
2023-01-12T15:33:03.244Z,98957.57
2023-01-12T15:35:35.478Z,98960.30
2023-01-12T15:38:06.614Z,98956.26
2023-01-12T15:40:37.653Z,98953.38
2023-01-12T15:43:12.119Z,98953.55
2023-01-12T15:45:44.781Z,98955.85
2023-01-12T15:48:15.907Z,98953.54
2023-01-12T15:50:47.563Z,98951.84
2023-01-12T15:53:20.069Z,98954.67
2023-01-12T15:55:52.014Z,98954.02
2023-01-12T15:58:24.083Z,98948.58
2023-01-12T16:00:55.258Z,98947.84
2023-01-12T16:03:57.176Z,98945.80
2023-01-12T16:06:17.171Z,98944.40
2023-01-12T16:08:48.589Z,98944.50
2023-01-12T16:11:24.390Z,98940.75
2023-01-12T16:13:55.886Z,98941.17
2023-01-12T16:16:28.587Z,98941.04
2023-01-12T16:18:59.860Z,98941.63
2023-01-12T16:21:30.904Z,98937.83
2023-01-12T16:24:02.287Z,98936.89
2023-01-12T16:26:33.893Z,98938.65
2023-01-12T16:29:05.104Z,98941.26
2023-01-12T16:31:39.203Z,98941.13
2023-01-12T16:34:10.637Z,98935.64
2023-01-12T16:36:41.792Z,98933.54
2023-01-12T16:39:14.191Z,98930.04
2023-01-12T16:41:45.098Z,98924.43
2023-01-12T16:44:15.912Z,98924.47
2023-01-12T16:46:48.759Z,98922.03
2023-01-12T16:49:19.608Z,98918.99
2023-01-12T16:51:50.320Z,98923.25
2023-01-12T16:54:21.342Z,98919.73
2023-01-12T16:56:52.395Z,98918.55
2023-01-12T16:59:23.736Z,98920.25
2023-01-12T17:01:54.798Z,98918.85
2023-01-12T17:04:25.596Z,98917.70
2023-01-12T17:06:56.585Z,98917.27
2023-01-12T17:09:27.495Z,98916.11
2023-01-12T17:11:59.878Z,98919.91
2023-01-12T17:14:34.842Z,98916.73
2023-01-12T17:17:09.553Z,98916.94
2023-01-12T17:19:45.547Z,98919.06
2023-01-12T17:22:16.821Z,98925.83
2023-01-12T17:24:48.118Z,98927.78
2023-01-12T17:27:20.253Z,98927.41
2023-01-12T17:29:51.877Z,98926.39
2023-01-12T17:32:22.836Z,98925.90
2023-01-12T17:34:53.805Z,98926.20
2023-01-12T17:37:25.221Z,98925.84
2023-01-12T17:39:56.476Z,98920.59
2023-01-12T17:42:45.303Z,98926.17
2023-01-12T17:45:16.442Z,98925.25
2023-01-12T17:47:48.093Z,98925.61
2023-01-12T17:50:19.730Z,98922.18
2023-01-12T17:52:51.096Z,98921.59
2023-01-12T17:55:22.352Z,98920.89
2023-01-12T17:57:53.727Z,98919.76
2023-01-12T18:00:25.999Z,98917.80
2023-01-12T18:02:57.175Z,98915.49
2023-01-12T18:05:29.121Z,98916.42
2023-01-12T18:08:00.138Z,98915.55
2023-01-12T18:10:31.383Z,98912.59
2023-01-12T18:13:02.613Z,98915.45
2023-01-12T18:15:33.651Z,98909.93
2023-01-12T18:18:04.746Z,98908.40
2023-01-12T18:20:35.868Z,98906.20
2023-01-12T18:23:06.656Z,98905.67
2023-01-12T18:25:41.837Z,98904.98
2023-01-12T18:28:12.803Z,98905.16
2023-01-12T18:30:43.552Z,98900.81
2023-01-12T18:33:14.408Z,98894.09
2023-01-12T18:35:45.299Z,98893.70
2023-01-12T18:38:16.312Z,98891.08
2023-01-12T18:41:07.538Z,98884.16
2023-01-12T18:43:39.079Z,98883.92
2023-01-12T18:46:11.112Z,98883.54
2023-01-12T18:48:44.005Z,98878.43
2023-01-12T18:51:33.609Z,98881.32
2023-01-12T18:54:04.675Z,98879.80
2023-01-12T18:56:35.514Z,98880.64
2023-01-12T18:59:08.171Z,98876.05
2023-01-12T19:01:39.527Z,98877.04
2023-01-12T19:04:15.607Z,98874.77
2023-01-12T19:06:47.531Z,98872.90
2023-01-12T19:09:37.483Z,98874.88
2023-01-12T19:12:09.382Z,98871.91
2023-01-12T19:14:58.097Z,98871.54
2023-01-12T19:17:29.933Z,98868.45
2023-01-12T19:20:02.308Z,98863.65
2023-01-12T19:22:50.830Z,98858.88
2023-01-12T19:25:41.846Z,98859.27
2023-01-12T19:28:36.576Z,98851.58
2023-01-12T19:31:11.014Z,98849.27
2023-01-12T19:33:44.069Z,98851.81
2023-01-12T19:36:16.859Z,98847.90
2023-01-12T19:38:51.090Z,98849.54
2023-01-12T19:41:36.016Z,98847.99
2023-01-12T19:44:07.681Z,98848.41
2023-01-12T19:46:39.179Z,98848.23
2023-01-12T19:49:11.008Z,98847.29
2023-01-12T19:51:42.078Z,98851.60
2023-01-12T19:54:13.044Z,98844.09
2023-01-12T19:56:46.985Z,98846.36
2023-01-12T19:59:17.726Z,98851.05
2023-01-12T20:01:50.847Z,98847.70
2023-01-12T20:04:21.940Z,98844.70
2023-01-12T20:06:53.323Z,98842.56
2023-01-12T20:09:24.716Z,98842.64
2023-01-12T20:11:55.734Z,98845.11
2023-01-12T20:14:26.650Z,98842.11
2023-01-12T20:16:57.563Z,98838.19
2023-01-12T20:19:28.395Z,98834.19
2023-01-12T20:21:59.095Z,98838.97
2023-01-12T20:24:30.338Z,98838.55
2023-01-12T20:27:01.151Z,98835.84
2023-01-12T20:29:32.011Z,98831.73
2023-01-12T20:32:03.060Z,98829.86
2023-01-12T20:34:35.186Z,98829.78
2023-01-12T20:37:06.044Z,98830.10
2023-01-12T20:39:37.387Z,98827.61
2023-01-12T20:42:08.427Z,98823.30
2023-01-12T20:44:40.592Z,98822.73
2023-01-12T20:47:11.443Z,98820.17
2023-01-12T20:49:42.332Z,98817.04
2023-01-12T20:52:13.169Z,98818.83
2023-01-12T20:54:44.418Z,98819.41
2023-01-12T20:57:15.646Z,98822.54
2023-01-12T20:59:46.774Z,98821.20
2023-01-12T21:02:20.814Z,98817.98
2023-01-12T21:04:52.081Z,98816.77
2023-01-12T21:07:23.006Z,98816.05
2023-01-12T21:09:53.818Z,98813.42
2023-01-12T21:12:27.403Z,98814.34
2023-01-12T21:14:58.676Z,98817.79
2023-01-12T21:17:31.173Z,98815.15
2023-01-12T21:20:02.023Z,98814.95
2023-01-12T21:22:32.963Z,98814.99
2023-01-12T21:25:03.898Z,98817.79
2023-01-12T21:27:34.733Z,98816.98
2023-01-12T21:30:06.307Z,98818.66
2023-01-12T21:32:37.252Z,98814.52
2023-01-12T21:35:09.789Z,98815.40
2023-01-12T21:37:40.531Z,98816.52
2023-01-12T21:40:16.722Z,98818.05
2023-01-12T21:43:05.161Z,98818.63
2023-01-12T21:45:37.151Z,98823.78
2023-01-12T21:48:08.924Z,98820.43
2023-01-12T21:50:39.976Z,98820.05
2023-01-12T21:53:14.346Z,98817.14
2023-01-12T21:55:53.077Z,98812.61
2023-01-12T21:58:24.471Z,98811.08
2023-01-12T22:00:56.122Z,98810.41
2023-01-12T22:03:28.968Z,98808.90
2023-01-12T22:06:07.577Z,98806.11
2023-01-12T22:08:40.312Z,98805.63
2023-01-12T22:11:13.448Z,98805.88
2023-01-12T22:13:45.028Z,98806.98
2023-01-12T22:16:18.462Z,98806.46
2023-01-12T22:18:50.898Z,98808.66
2023-01-12T22:21:23.186Z,98801.56
2023-01-12T22:23:54.132Z,98798.98
2023-01-12T22:26:24.844Z,98801.11
2023-01-12T22:28:55.901Z,98800.33
2023-01-12T22:31:27.080Z,98797.10
2023-01-12T22:34:03.991Z,98790.93
2023-01-12T22:36:43.010Z,98795.61
2023-01-12T22:39:15.221Z,98791.77
2023-01-12T22:41:47.540Z,98786.83
2023-01-12T22:44:18.873Z,98786.20
2023-01-12T22:46:49.583Z,98778.89
2023-01-12T22:49:20.502Z,98778.56
2023-01-12T22:51:51.463Z,98777.98
2023-01-12T22:54:22.417Z,98773.96
2023-01-12T22:56:53.150Z,98776.38
2023-01-12T22:59:24.149Z,98776.19
2023-01-12T23:01:57.595Z,98773.39
2023-01-12T23:04:28.754Z,98771.88
2023-01-12T23:06:59.492Z,98774.36
2023-01-12T23:09:30.491Z,98770.91
2023-01-12T23:12:01.263Z,98773.73
2023-01-12T23:14:32.117Z,98775.02
2023-01-12T23:17:03.054Z,98777.85
2023-01-12T23:19:34.236Z,98778.55
2023-01-12T23:22:05.054Z,98780.48
2023-01-12T23:24:38.279Z,98773.05
2023-01-12T23:27:08.981Z,98772.71
2023-01-12T23:29:39.910Z,98773.27
2023-01-12T23:32:10.756Z,98772.92
2023-01-12T23:34:41.487Z,98767.14
2023-01-12T23:37:12.147Z,98774.91
2023-01-12T23:39:43.068Z,98771.73
2023-01-12T23:42:14.012Z,98777.10
2023-01-12T23:44:45.411Z,98770.78
2023-01-12T23:47:19.230Z,98772.18
2023-01-12T23:49:50.317Z,98769.27
2023-01-12T23:52:21.201Z,98768.20
2023-01-12T23:54:53.398Z,98764.95
2023-01-12T23:57:24.529Z,98756.59
2023-01-12T23:59:55.658Z,98761.04
